Terminal Aerodrome Forecast
Issued by NWS Indianapolis, IN

Home | Current Version | Previous Version | Text Only | Print | Product List | Glossary On
Versions: 1 2 3 4 5 6 7 8 9 10 11 12 13 14 15 16 17 18 19 20 21 22 23 24 25 26
000
FTUS43 KIND 301700
TAFIND
TAF
KIND 301721Z 3018/3124 17005KT P6SM BKN090
     FM310000 30006KT P6SM VCSH OVC060
     FM311300 31010G20KT P6SM VCSH SCT015 OVC030
     FM311900 30017G30KT P6SM VCSH BKN020=

USA.gov is the U.S. government's official web portal to all federal, state and local government web resources and services.